sensor_id;sensor_type;location;lat;lon;timestamp;P1;durP1;ratioP1;P2;durP2;ratioP2
41556;SDS011;27720;51.992;5.890;2024-02-16T00:00:23;1.50;;;0.60;;
41556;SDS011;27720;51.992;5.890;2024-02-16T00:02:50;4.45;;;0.80;;
41556;SDS011;27720;51.992;5.890;2024-02-16T00:05:16;1.60;;;0.70;;
41556;SDS011;27720;51.992;5.890;2024-02-16T00:07:42;1.67;;;0.80;;
41556;SDS011;27720;51.992;5.890;2024-02-16T00:10:08;0.80;;;0.60;;
41556;SDS011;27720;51.992;5.890;2024-02-16T00:12:34;1.90;;;0.77;;
41556;SDS011;27720;51.992;5.890;2024-02-16T00:15:03;2.13;;;0.80;;
41556;SDS011;27720;51.992;5.890;2024-02-16T00:17:29;1.33;;;0.50;;
41556;SDS011;27720;51.992;5.890;2024-02-16T00:19:55;1.70;;;1.00;;
41556;SDS011;27720;51.992;5.890;2024-02-16T00:22:22;1.38;;;0.60;;
41556;SDS011;27720;51.992;5.890;2024-02-16T00:24:48;1.88;;;0.90;;
41556;SDS011;27720;51.992;5.890;2024-02-16T00:27:14;2.55;;;0.98;;
41556;SDS011;27720;51.992;5.890;2024-02-16T00:29:40;2.30;;;1.10;;
41556;SDS011;27720;51.992;5.890;2024-02-16T00:32:06;2.70;;;0.80;;
41556;SDS011;27720;51.992;5.890;2024-02-16T00:34:32;2.40;;;0.82;;
41556;SDS011;27720;51.992;5.890;2024-02-16T00:37:02;1.42;;;0.80;;
41556;SDS011;27720;51.992;5.890;2024-02-16T00:39:36;1.40;;;0.70;;
41556;SDS011;27720;51.992;5.890;2024-02-16T00:42:05;6.22;;;1.10;;
41556;SDS011;27720;51.992;5.890;2024-02-16T00:44:31;2.55;;;0.80;;
41556;SDS011;27720;51.992;5.890;2024-02-16T00:46:57;2.63;;;0.75;;
41556;SDS011;27720;51.992;5.890;2024-02-16T00:49:23;4.07;;;0.98;;
41556;SDS011;27720;51.992;5.890;2024-02-16T00:51:49;2.03;;;1.00;;
41556;SDS011;27720;51.992;5.890;2024-02-16T00:54:15;3.10;;;0.98;;
41556;SDS011;27720;51.992;5.890;2024-02-16T00:56:42;3.63;;;1.10;;
41556;SDS011;27720;51.992;5.890;2024-02-16T00:59:07;1.92;;;1.00;;
41556;SDS011;27720;51.992;5.890;2024-02-16T01:01:34;3.47;;;1.13;;
41556;SDS011;27720;51.992;5.890;2024-02-16T01:04:01;3.78;;;1.10;;
41556;SDS011;27720;51.992;5.890;2024-02-16T01:06:27;3.15;;;0.90;;
41556;SDS011;27720;51.992;5.890;2024-02-16T01:08:53;4.85;;;0.77;;
41556;SDS011;27720;51.992;5.890;2024-02-16T01:11:19;1.52;;;0.82;;
41556;SDS011;27720;51.992;5.890;2024-02-16T01:13:45;1.88;;;0.77;;
41556;SDS011;27720;51.992;5.890;2024-02-16T01:16:11;1.92;;;0.80;;
41556;SDS011;27720;51.992;5.890;2024-02-16T01:18:37;3.40;;;1.55;;
41556;SDS011;27720;51.992;5.890;2024-02-16T01:21:03;1.58;;;0.77;;
41556;SDS011;27720;51.992;5.890;2024-02-16T01:23:29;5.28;;;1.25;;
41556;SDS011;27720;51.992;5.890;2024-02-16T01:25:55;3.13;;;0.90;;
41556;SDS011;27720;51.992;5.890;2024-02-16T01:28:20;2.28;;;0.90;;
41556;SDS011;27720;51.992;5.890;2024-02-16T01:30:48;2.45;;;1.00;;
41556;SDS011;27720;51.992;5.890;2024-02-16T01:33:14;1.85;;;0.98;;
41556;SDS011;27720;51.992;5.890;2024-02-16T01:35:39;2.22;;;0.77;;
41556;SDS011;27720;51.992;5.890;2024-02-16T01:38:05;5.32;;;1.20;;
41556;SDS011;27720;51.992;5.890;2024-02-16T01:40:31;2.25;;;1.15;;
41556;SDS011;27720;51.992;5.890;2024-02-16T01:42:57;1.42;;;0.80;;
41556;SDS011;27720;51.992;5.890;2024-02-16T01:45:22;4.53;;;1.10;;
41556;SDS011;27720;51.992;5.890;2024-02-16T01:47:52;2.85;;;1.10;;
41556;SDS011;27720;51.992;5.890;2024-02-16T01:50:18;3.35;;;0.80;;
41556;SDS011;27720;51.992;5.890;2024-02-16T01:52:45;2.45;;;0.93;;
41556;SDS011;27720;51.992;5.890;2024-02-16T01:55:14;2.25;;;0.90;;
41556;SDS011;27720;51.992;5.890;2024-02-16T01:57:44;5.00;;;1.02;;
41556;SDS011;27720;51.992;5.890;2024-02-16T02:02:39;1.70;;;0.80;;
41556;SDS011;27720;51.992;5.890;2024-02-16T02:05:06;2.42;;;0.82;;
41556;SDS011;27720;51.992;5.890;2024-02-16T02:07:32;3.85;;;0.80;;
41556;SDS011;27720;51.992;5.890;2024-02-16T02:09:58;3.42;;;0.93;;
41556;SDS011;27720;51.992;5.890;2024-02-16T02:12:24;1.20;;;0.63;;
41556;SDS011;27720;51.992;5.890;2024-02-16T02:14:50;1.92;;;0.95;;
41556;SDS011;27720;51.992;5.890;2024-02-16T02:17:16;2.63;;;0.73;;
41556;SDS011;27720;51.992;5.890;2024-02-16T02:19:42;3.97;;;0.80;;
41556;SDS011;27720;51.992;5.890;2024-02-16T02:22:15;2.63;;;0.70;;
41556;SDS011;27720;51.992;5.890;2024-02-16T02:24:42;4.07;;;0.90;;
41556;SDS011;27720;51.992;5.890;2024-02-16T02:27:09;1.80;;;0.63;;
41556;SDS011;27720;51.992;5.890;2024-02-16T02:29:35;4.13;;;0.75;;
41556;SDS011;27720;51.992;5.890;2024-02-16T02:32:01;2.75;;;1.20;;
41556;SDS011;27720;51.992;5.890;2024-02-16T02:34:27;2.85;;;0.80;;
41556;SDS011;27720;51.992;5.890;2024-02-16T02:36:52;1.70;;;1.00;;
41556;SDS011;27720;51.992;5.890;2024-02-16T02:39:18;4.65;;;1.05;;
41556;SDS011;27720;51.992;5.890;2024-02-16T02:41:44;2.85;;;1.20;;
41556;SDS011;27720;51.992;5.890;2024-02-16T02:44:10;2.70;;;0.90;;
41556;SDS011;27720;51.992;5.890;2024-02-16T02:46:36;2.97;;;1.08;;
41556;SDS011;27720;51.992;5.890;2024-02-16T02:49:02;1.38;;;0.85;;
41556;SDS011;27720;51.992;5.890;2024-02-16T02:51:28;3.80;;;1.20;;
41556;SDS011;27720;51.992;5.890;2024-02-16T02:53:54;2.88;;;1.08;;
41556;SDS011;27720;51.992;5.890;2024-02-16T02:56:20;2.40;;;0.73;;
41556;SDS011;27720;51.992;5.890;2024-02-16T02:58:46;1.98;;;1.00;;
41556;SDS011;27720;51.992;5.890;2024-02-16T03:01:12;4.95;;;1.25;;
41556;SDS011;27720;51.992;5.890;2024-02-16T03:03:41;1.58;;;0.70;;
41556;SDS011;27720;51.992;5.890;2024-02-16T03:06:08;2.13;;;1.02;;
41556;SDS011;27720;51.992;5.890;2024-02-16T03:08:34;4.40;;;0.80;;
41556;SDS011;27720;51.992;5.890;2024-02-16T03:11:00;1.67;;;0.90;;
41556;SDS011;27720;51.992;5.890;2024-02-16T03:13:26;1.40;;;0.77;;
41556;SDS011;27720;51.992;5.890;2024-02-16T03:15:52;3.03;;;0.90;;
41556;SDS011;27720;51.992;5.890;2024-02-16T03:18:18;1.40;;;0.60;;
41556;SDS011;27720;51.992;5.890;2024-02-16T03:20:44;3.45;;;0.75;;
41556;SDS011;27720;51.992;5.890;2024-02-16T03:23:13;1.95;;;0.85;;
41556;SDS011;27720;51.992;5.890;2024-02-16T03:25:39;2.85;;;1.05;;
41556;SDS011;27720;51.992;5.890;2024-02-16T03:28:05;3.92;;;0.90;;
41556;SDS011;27720;51.992;5.890;2024-02-16T03:30:35;2.77;;;0.83;;
41556;SDS011;27720;51.992;5.890;2024-02-16T03:33:00;2.05;;;0.95;;
41556;SDS011;27720;51.992;5.890;2024-02-16T03:35:26;4.32;;;1.10;;
41556;SDS011;27720;51.992;5.890;2024-02-16T03:37:52;1.70;;;0.88;;
41556;SDS011;27720;51.992;5.890;2024-02-16T03:40:18;1.52;;;0.73;;
41556;SDS011;27720;51.992;5.890;2024-02-16T03:42:44;2.95;;;1.10;;
41556;SDS011;27720;51.992;5.890;2024-02-16T03:45:10;2.13;;;0.88;;
41556;SDS011;27720;51.992;5.890;2024-02-16T03:47:36;2.47;;;1.00;;
41556;SDS011;27720;51.992;5.890;2024-02-16T16:01:05;2.85;;;1.25;;
41556;SDS011;27720;51.992;5.890;2024-02-16T16:03:31;2.85;;;1.60;;
41556;SDS011;27720;51.992;5.890;2024-02-16T16:05:57;6.40;;;2.25;;
41556;SDS011;27720;51.992;5.890;2024-02-16T16:08:22;4.28;;;2.08;;
41556;SDS011;27720;51.992;5.890;2024-02-16T16:10:48;2.58;;;1.70;;
41556;SDS011;27720;51.992;5.890;2024-02-16T16:13:14;3.67;;;1.65;;
41556;SDS011;27720;51.992;5.890;2024-02-16T16:15:43;4.03;;;1.55;;
41556;SDS011;27720;51.992;5.890;2024-02-16T16:18:11;1.77;;;1.08;;
41556;SDS011;27720;51.992;5.890;2024-02-16T16:20:38;2.40;;;1.65;;
41556;SDS011;27720;51.992;5.890;2024-02-16T16:23:06;3.17;;;1.38;;
41556;SDS011;27720;51.992;5.890;2024-02-16T16:25:34;2.70;;;1.50;;
41556;SDS011;27720;51.992;5.890;2024-02-16T16:28:00;2.00;;;1.23;;
41556;SDS011;27720;51.992;5.890;2024-02-16T16:30:25;3.40;;;1.52;;
41556;SDS011;27720;51.992;5.890;2024-02-16T16:32:51;2.63;;;1.30;;
41556;SDS011;27720;51.992;5.890;2024-02-16T16:35:17;4.55;;;1.60;;
41556;SDS011;27720;51.992;5.890;2024-02-16T16:37:43;3.40;;;1.92;;
41556;SDS011;27720;51.992;5.890;2024-02-16T16:40:09;4.07;;;1.85;;
41556;SDS011;27720;51.992;5.890;2024-02-16T16:42:35;3.90;;;1.65;;
41556;SDS011;27720;51.992;5.890;2024-02-16T16:45:01;4.82;;;1.65;;
41556;SDS011;27720;51.992;5.890;2024-02-16T16:47:26;2.88;;;1.73;;
41556;SDS011;27720;51.992;5.890;2024-02-16T16:49:52;3.28;;;1.80;;
41556;SDS011;27720;51.992;5.890;2024-02-16T16:52:19;3.20;;;1.77;;
41556;SDS011;27720;51.992;5.890;2024-02-16T16:54:45;2.05;;;1.25;;
41556;SDS011;27720;51.992;5.890;2024-02-16T16:57:10;3.78;;;2.10;;
41556;SDS011;27720;51.992;5.890;2024-02-16T16:59:36;4.78;;;2.13;;
41556;SDS011;27720;51.992;5.890;2024-02-16T17:02:02;4.57;;;2.25;;
41556;SDS011;27720;51.992;5.890;2024-02-16T17:04:32;4.88;;;2.03;;
41556;SDS011;27720;51.992;5.890;2024-02-16T17:06:58;5.18;;;2.20;;
41556;SDS011;27720;51.992;5.890;2024-02-16T17:09:25;4.85;;;2.10;;
41556;SDS011;27720;51.992;5.890;2024-02-16T17:11:50;6.47;;;2.33;;
41556;SDS011;27720;51.992;5.890;2024-02-16T17:14:17;6.57;;;2.53;;
41556;SDS011;27720;51.992;5.890;2024-02-16T17:16:44;6.30;;;2.70;;
41556;SDS011;27720;51.992;5.890;2024-02-16T17:19:11;3.25;;;1.92;;
41556;SDS011;27720;51.992;5.890;2024-02-16T17:21:37;5.47;;;2.65;;
41556;SDS011;27720;51.992;5.890;2024-02-16T17:24:03;5.15;;;2.40;;
41556;SDS011;27720;51.992;5.890;2024-02-16T17:26:29;5.20;;;2.58;;
41556;SDS011;27720;51.992;5.890;2024-02-16T17:28:55;5.53;;;2.55;;
41556;SDS011;27720;51.992;5.890;2024-02-16T17:31:20;4.75;;;2.13;;
41556;SDS011;27720;51.992;5.890;2024-02-16T17:33:46;4.45;;;2.50;;
41556;SDS011;27720;51.992;5.890;2024-02-16T17:36:12;6.50;;;3.10;;
41556;SDS011;27720;51.992;5.890;2024-02-16T17:38:37;5.85;;;3.20;;
41556;SDS011;27720;51.992;5.890;2024-02-16T17:41:03;6.20;;;3.42;;
41556;SDS011;27720;51.992;5.890;2024-02-16T17:43:29;6.90;;;3.28;;
41556;SDS011;27720;51.992;5.890;2024-02-16T17:45:57;5.85;;;2.67;;
41556;SDS011;27720;51.992;5.890;2024-02-16T17:48:22;7.43;;;3.25;;
41556;SDS011;27720;51.992;5.890;2024-02-16T17:50:52;6.80;;;3.08;;
41556;SDS011;27720;51.992;5.890;2024-02-16T17:53:17;7.43;;;4.30;;
41556;SDS011;27720;51.992;5.890;2024-02-16T17:55:43;6.80;;;3.58;;
41556;SDS011;27720;51.992;5.890;2024-02-16T17:58:09;6.68;;;3.92;;
41556;SDS011;27720;51.992;5.890;2024-02-16T18:00:35;9.73;;;4.10;;
41556;SDS011;27720;51.992;5.890;2024-02-16T18:03:01;6.53;;;3.75;;
41556;SDS011;27720;51.992;5.890;2024-02-16T18:05:28;6.47;;;3.70;;
41556;SDS011;27720;51.992;5.890;2024-02-16T18:07:54;8.27;;;3.85;;
41556;SDS011;27720;51.992;5.890;2024-02-16T18:10:19;8.50;;;4.85;;
41556;SDS011;27720;51.992;5.890;2024-02-16T18:12:46;9.55;;;4.57;;
41556;SDS011;27720;51.992;5.890;2024-02-16T18:15:12;6.95;;;3.97;;
41556;SDS011;27720;51.992;5.890;2024-02-16T18:17:38;10.32;;;5.05;;
41556;SDS011;27720;51.992;5.890;2024-02-16T18:20:05;13.27;;;4.60;;
41556;SDS011;27720;51.992;5.890;2024-02-16T18:22:32;7.28;;;4.15;;
41556;SDS011;27720;51.992;5.890;2024-02-16T18:24:57;8.73;;;5.10;;
41556;SDS011;27720;51.992;5.890;2024-02-16T18:27:23;10.32;;;5.00;;
41556;SDS011;27720;51.992;5.890;2024-02-16T18:29:49;8.63;;;4.72;;
41556;SDS011;27720;51.992;5.890;2024-02-16T18:32:14;8.65;;;4.53;;
41556;SDS011;27720;51.992;5.890;2024-02-16T18:34:40;9.23;;;4.10;;
41556;SDS011;27720;51.992;5.890;2024-02-16T18:37:07;11.15;;;4.82;;
41556;SDS011;27720;51.992;5.890;2024-02-16T18:39:33;9.25;;;4.78;;
41556;SDS011;27720;51.992;5.890;2024-02-16T18:41:59;9.73;;;5.35;;
41556;SDS011;27720;51.992;5.890;2024-02-16T18:44:24;9.13;;;4.60;;
41556;SDS011;27720;51.992;5.890;2024-02-16T18:46:50;8.35;;;3.65;;
41556;SDS011;27720;51.992;5.890;2024-02-16T18:49:16;7.80;;;4.18;;
41556;SDS011;27720;51.992;5.890;2024-02-16T18:51:42;13.30;;;6.05;;
41556;SDS011;27720;51.992;5.890;2024-02-16T18:54:08;10.30;;;4.93;;
41556;SDS011;27720;51.992;5.890;2024-02-16T18:56:35;10.30;;;4.68;;
41556;SDS011;27720;51.992;5.890;2024-02-16T18:59:02;10.13;;;5.05;;
41556;SDS011;27720;51.992;5.890;2024-02-16T19:01:29;11.82;;;5.38;;
41556;SDS011;27720;51.992;5.890;2024-02-16T19:03:57;14.25;;;6.22;;
41556;SDS011;27720;51.992;5.890;2024-02-16T19:06:23;12.38;;;6.47;;
41556;SDS011;27720;51.992;5.890;2024-02-16T19:08:49;14.50;;;7.10;;
41556;SDS011;27720;51.992;5.890;2024-02-16T19:11:16;18.02;;;6.35;;
41556;SDS011;27720;51.992;5.890;2024-02-16T19:13:44;14.73;;;7.15;;
41556;SDS011;27720;51.992;5.890;2024-02-16T19:16:10;10.05;;;5.38;;
41556;SDS011;27720;51.992;5.890;2024-02-16T19:18:36;16.40;;;7.93;;
41556;SDS011;27720;51.992;5.890;2024-02-16T19:21:02;11.05;;;5.45;;
41556;SDS011;27720;51.992;5.890;2024-02-16T19:23:29;15.10;;;6.43;;
41556;SDS011;27720;51.992;5.890;2024-02-16T19:25:55;8.68;;;4.90;;
41556;SDS011;27720;51.992;5.890;2024-02-16T19:28:21;19.00;;;6.63;;
41556;SDS011;27720;51.992;5.890;2024-02-16T19:30:47;12.32;;;6.60;;
41556;SDS011;27720;51.992;5.890;2024-02-16T19:33:13;14.45;;;6.90;;
41556;SDS011;27720;51.992;5.890;2024-02-16T19:35:39;16.65;;;6.63;;
41556;SDS011;27720;51.992;5.890;2024-02-16T19:38:05;11.27;;;5.75;;
41556;SDS011;27720;51.992;5.890;2024-02-16T19:40:31;15.30;;;7.75;;
41556;SDS011;27720;51.992;5.890;2024-02-16T19:42:58;14.32;;;7.35;;
41556;SDS011;27720;51.992;5.890;2024-02-16T19:45:24;16.08;;;8.07;;
41556;SDS011;27720;51.992;5.890;2024-02-16T19:47:50;17.10;;;6.80;;
41556;SDS011;27720;51.992;5.890;2024-02-16T19:50:17;16.90;;;7.88;;
41556;SDS011;27720;51.992;5.890;2024-02-16T19:52:44;20.02;;;8.60;;
41556;SDS011;27720;51.992;5.890;2024-02-16T19:55:10;15.02;;;6.78;;
41556;SDS011;27720;51.992;5.890;2024-02-16T19:57:37;16.67;;;7.88;;
41556;SDS011;27720;51.992;5.890;2024-02-16T20:00:03;17.27;;;8.02;;
41556;SDS011;27720;51.992;5.890;2024-02-16T20:02:32;15.30;;;7.20;;
41556;SDS011;27720;51.992;5.890;2024-02-16T20:04:57;13.98;;;6.70;;
41556;SDS011;27720;51.992;5.890;2024-02-16T20:07:23;15.07;;;7.28;;
41556;SDS011;27720;51.992;5.890;2024-02-16T20:09:52;17.30;;;6.38;;
41556;SDS011;27720;51.992;5.890;2024-02-16T20:12:19;16.83;;;8.05;;
41556;SDS011;27720;51.992;5.890;2024-02-16T20:14:45;19.55;;;7.53;;
41556;SDS011;27720;51.992;5.890;2024-02-16T20:17:10;14.85;;;7.05;;
41556;SDS011;27720;51.992;5.890;2024-02-16T20:19:38;15.95;;;7.57;;
41556;SDS011;27720;51.992;5.890;2024-02-16T20:22:04;20.67;;;9.23;;
41556;SDS011;27720;51.992;5.890;2024-02-16T20:24:30;13.80;;;6.90;;
41556;SDS011;27720;51.992;5.890;2024-02-16T20:26:56;21.27;;;9.15;;
41556;SDS011;27720;51.992;5.890;2024-02-16T20:29:25;15.95;;;8.05;;
41556;SDS011;27720;51.992;5.890;2024-02-16T20:31:53;18.98;;;7.63;;
41556;SDS011;27720;51.992;5.890;2024-02-16T20:34:18;13.13;;;6.63;;
41556;SDS011;27720;51.992;5.890;2024-02-16T20:36:44;17.30;;;7.68;;
41556;SDS011;27720;51.992;5.890;2024-02-16T20:39:15;20.08;;;7.35;;
41556;SDS011;27720;51.992;5.890;2024-02-16T20:41:41;18.83;;;7.85;;
41556;SDS011;27720;51.992;5.890;2024-02-16T20:44:09;16.95;;;8.07;;
41556;SDS011;27720;51.992;5.890;2024-02-16T20:46:35;16.92;;;7.90;;
41556;SDS011;27720;51.992;5.890;2024-02-16T20:49:03;13.15;;;6.65;;
41556;SDS011;27720;51.992;5.890;2024-02-16T20:51:29;13.55;;;6.30;;
41556;SDS011;27720;51.992;5.890;2024-02-16T20:53:55;15.48;;;6.10;;
41556;SDS011;27720;51.992;5.890;2024-02-16T20:56:21;13.10;;;6.82;;
41556;SDS011;27720;51.992;5.890;2024-02-16T20:58:46;12.70;;;6.55;;
41556;SDS011;27720;51.992;5.890;2024-02-16T21:01:12;13.32;;;5.90;;
41556;SDS011;27720;51.992;5.890;2024-02-16T21:03:38;11.18;;;5.43;;
41556;SDS011;27720;51.992;5.890;2024-02-16T21:06:07;13.23;;;6.03;;
41556;SDS011;27720;51.992;5.890;2024-02-16T21:08:33;13.65;;;5.57;;
41556;SDS011;27720;51.992;5.890;2024-02-16T21:10:59;12.27;;;6.07;;
41556;SDS011;27720;51.992;5.890;2024-02-16T21:13:28;12.80;;;6.10;;
41556;SDS011;27720;51.992;5.890;2024-02-16T21:15:53;10.45;;;5.32;;
41556;SDS011;27720;51.992;5.890;2024-02-16T21:18:19;13.00;;;5.53;;
41556;SDS011;27720;51.992;5.890;2024-02-16T21:20:45;12.32;;;6.55;;
41556;SDS011;27720;51.992;5.890;2024-02-16T21:23:11;14.40;;;6.10;;
41556;SDS011;27720;51.992;5.890;2024-02-16T21:25:37;10.48;;;5.18;;
41556;SDS011;27720;51.992;5.890;2024-02-16T21:28:03;13.40;;;6.78;;
41556;SDS011;27720;51.992;5.890;2024-02-16T21:30:29;12.52;;;5.88;;
41556;SDS011;27720;51.992;5.890;2024-02-16T21:32:55;12.68;;;5.53;;
41556;SDS011;27720;51.992;5.890;2024-02-16T21:35:22;13.18;;;5.45;;
41556;SDS011;27720;51.992;5.890;2024-02-16T21:37:48;12.88;;;5.03;;
41556;SDS011;27720;51.992;5.890;2024-02-16T21:40:16;14.48;;;6.57;;
41556;SDS011;27720;51.992;5.890;2024-02-16T21:42:42;11.65;;;5.78;;
41556;SDS011;27720;51.992;5.890;2024-02-16T21:45:08;11.70;;;6.05;;
41556;SDS011;27720;51.992;5.890;2024-02-16T21:47:34;10.63;;;4.70;;
41556;SDS011;27720;51.992;5.890;2024-02-16T21:50:00;13.43;;;5.93;;
41556;SDS011;27720;51.992;5.890;2024-02-16T21:52:26;7.82;;;4.10;;
41556;SDS011;27720;51.992;5.890;2024-02-16T21:54:56;12.50;;;6.07;;
41556;SDS011;27720;51.992;5.890;2024-02-16T21:57:21;11.70;;;5.60;;
41556;SDS011;27720;51.992;5.890;2024-02-16T21:59:47;14.50;;;6.15;;
41556;SDS011;27720;51.992;5.890;2024-02-16T22:02:13;14.95;;;5.90;;
41556;SDS011;27720;51.992;5.890;2024-02-16T22:04:38;12.90;;;5.43;;
41556;SDS011;27720;51.992;5.890;2024-02-16T22:07:04;13.75;;;7.03;;
41556;SDS011;27720;51.992;5.890;2024-02-16T22:09:30;14.18;;;6.22;;
41556;SDS011;27720;51.992;5.890;2024-02-16T22:11:55;14.18;;;6.20;;
41556;SDS011;27720;51.992;5.890;2024-02-16T22:14:21;17.38;;;6.22;;
41556;SDS011;27720;51.992;5.890;2024-02-16T22:16:46;14.93;;;5.95;;
41556;SDS011;27720;51.992;5.890;2024-02-16T22:19:12;11.48;;;6.00;;
41556;SDS011;27720;51.992;5.890;2024-02-16T22:21:38;14.93;;;6.10;;
41556;SDS011;27720;51.992;5.890;2024-02-16T22:24:04;15.35;;;6.45;;
41556;SDS011;27720;51.992;5.890;2024-02-16T22:26:31;15.80;;;7.43;;
41556;SDS011;27720;51.992;5.890;2024-02-16T22:28:59;15.77;;;6.70;;
41556;SDS011;27720;51.992;5.890;2024-02-16T22:31:25;13.45;;;6.38;;
41556;SDS011;27720;51.992;5.890;2024-02-16T22:33:51;16.55;;;6.82;;
41556;SDS011;27720;51.992;5.890;2024-02-16T22:36:17;12.98;;;5.82;;
41556;SDS011;27720;51.992;5.890;2024-02-16T22:38:43;13.20;;;5.88;;
41556;SDS011;27720;51.992;5.890;2024-02-16T22:41:08;11.45;;;6.07;;
41556;SDS011;27720;51.992;5.890;2024-02-16T22:43:41;13.98;;;5.80;;
41556;SDS011;27720;51.992;5.890;2024-02-16T22:46:06;13.80;;;5.80;;
41556;SDS011;27720;51.992;5.890;2024-02-16T22:48:32;7.80;;;4.38;;
41556;SDS011;27720;51.992;5.890;2024-02-16T22:50:58;15.23;;;6.78;;
41556;SDS011;27720;51.992;5.890;2024-02-16T22:53:23;10.70;;;5.60;;
41556;SDS011;27720;51.992;5.890;2024-02-16T22:55:49;15.88;;;7.28;;
41556;SDS011;27720;51.992;5.890;2024-02-16T22:58:15;14.52;;;6.35;;
41556;SDS011;27720;51.992;5.890;2024-02-16T23:00:41;13.10;;;5.65;;
41556;SDS011;27720;51.992;5.890;2024-02-16T23:03:07;14.73;;;5.45;;
41556;SDS011;27720;51.992;5.890;2024-02-16T23:05:35;17.15;;;6.97;;
41556;SDS011;27720;51.992;5.890;2024-02-16T23:08:01;12.25;;;5.00;;
41556;SDS011;27720;51.992;5.890;2024-02-16T23:10:28;12.55;;;6.07;;
41556;SDS011;27720;51.992;5.890;2024-02-16T23:12:54;15.20;;;6.30;;
41556;SDS011;27720;51.992;5.890;2024-02-16T23:15:19;12.73;;;6.13;;
41556;SDS011;27720;51.992;5.890;2024-02-16T23:17:48;18.27;;;6.65;;
41556;SDS011;27720;51.992;5.890;2024-02-16T23:20:14;12.52;;;6.05;;
41556;SDS011;27720;51.992;5.890;2024-02-16T23:25:21;14.98;;;6.97;;
41556;SDS011;27720;51.992;5.890;2024-02-16T23:27:47;15.98;;;6.97;;
41556;SDS011;27720;51.992;5.890;2024-02-16T23:30:13;16.15;;;6.95;;
41556;SDS011;27720;51.992;5.890;2024-02-16T23:32:39;17.52;;;6.45;;
41556;SDS011;27720;51.992;5.890;2024-02-16T23:35:05;14.48;;;5.88;;
41556;SDS011;27720;51.992;5.890;2024-02-16T23:37:32;17.85;;;7.03;;
41556;SDS011;27720;51.992;5.890;2024-02-16T23:39:58;16.55;;;6.50;;
41556;SDS011;27720;51.992;5.890;2024-02-16T23:42:24;15.15;;;6.03;;
41556;SDS011;27720;51.992;5.890;2024-02-16T23:44:50;13.50;;;6.70;;
41556;SDS011;27720;51.992;5.890;2024-02-16T23:47:17;14.75;;;6.15;;
41556;SDS011;27720;51.992;5.890;2024-02-16T23:49:43;17.40;;;7.50;;
41556;SDS011;27720;51.992;5.890;2024-02-16T23:52:09;14.80;;;7.07;;
41556;SDS011;27720;51.992;5.890;2024-02-16T23:54:35;13.98;;;5.85;;
41556;SDS011;27720;51.992;5.890;2024-02-16T23:57:00;14.45;;;6.72;;
41556;SDS011;27720;51.992;5.890;2024-02-16T23:59:26;10.57;;;5.65;;
